Flight Track Log - Related Links

Times and Time Zones

All times are in EDT time to prevent confusion due to time zone crossing. See the JBU348 flight status page for this flight to view local times or setup timezone preferences in your user account.

Time Position Orientation Groundspeed Altitude Reporting Facility
EDT Latitude Longitude Course Direction KTS MPH feet Rate Location/Type
Sun 06:32:08 PM 27.4000 -82.5667 41° Northeast 157 181 500  Level Tampa TRACON
Sun 06:33:02 PM 27.4167 -82.6167 291° West 172 198 1,900 1,579 Climbing Tampa TRACON
Sun 06:34:00 PM 27.6533 -82.3044 37° Northeast  Level FlightAware Approximate
Sun 06:34:02 PM 27.4000 -82.6833 254° West 232 267 3,500  Level Tampa TRACON
Sun 06:35:00 PM 27.7438 -82.2229 41° Northeast  Level FlightAware Approximate
Sun 06:35:02 PM 27.4500 -82.7167 329° Northwest 236 272 6,500  Level Tampa TRACON
Sun 06:36:00 PM 27.8305 -82.1362 41° Northeast  Level FlightAware Approximate
Sun 06:37:00 PM 27.9127 -82.0540 41° Northeast  Level FlightAware Approximate
Sun 06:37:15 PM 27.5269 -82.5419 64° Northeast 297 342 11,600  Level Miami Center
Sun 06:38:15 PM 27.5681 -82.4456 64° Northeast 308 354 12,900 1,900 Climbing Miami Center
Sun 06:39:15 PM 27.6161 -82.3403 63° Northeast 342 394 15,400 2,450 Climbing Miami Center
Sun 06:40:15 PM 27.6681 -82.2350 61° Northeast 365 420 17,800 2,200 Climbing Miami Center
Sun 06:41:15 PM 27.7197 -82.1367 59° Northeast 393 452 19,800 1,900 Climbing Miami Center
Sun 06:42:15 PM 27.7758 -82.0242 61° Northeast 400 460 21,600 1,900 Climbing Miami Center
Sun 06:43:15 PM 27.8367 -81.8956 62° Northeast 410 472 23,600 1,700 Climbing Miami Center
Sun 06:44:15 PM 27.8972 -81.7786 60° Northeast 417 480 25,000 850 Climbing Miami Center
Sun 06:45:15 PM 27.9575 -81.6589 60° Northeast 422 486 25,300 900 Climbing Miami Center
Sun 06:46:15 PM 28.0178 -81.5392 60° Northeast 428 493 26,800 1,550 Climbing Miami Center
Sun 06:47:15 PM 28.0758 -81.4194 61° Northeast 428 493 28,400 1,400 Climbing Miami Center
Sun 06:48:15 PM 28.1403 -81.2972 59° Northeast 434 499 29,600 1,100 Climbing Miami Center
Sun 06:49:15 PM 28.2025 -81.1725 60° Northeast 439 505 30,600 700 Climbing Miami Center
Sun 06:50:15 PM 28.2581 -81.0544 62° Northeast 449 517 31,000 200 Climbing Miami Center
Sun 06:51:15 PM 28.3181 -80.9317 61° Northeast 449 517 31,000  Level Miami Center
Sun 06:52:15 PM 28.3886 -80.7950 60° Northeast 449 517 31,000  Level Miami Center
Sun 06:53:15 PM 28.4461 -80.6767 61° Northeast 455 524 31,000 300 Level Miami Center
Sun 06:54:15 PM 28.5078 -80.5464 62° Northeast 467 537 31,600 750 Climbing Miami Center
Sun 06:55:15 PM 28.5781 -80.4069 60° Northeast 467 537 32,500 700 Climbing Miami Center
Sun 06:56:15 PM 28.6419 -80.2767 61° Northeast 467 537 33,000 250 Climbing Miami Center
Sun 06:57:15 PM 28.7217 -80.1631 51° Northeast 467 537 33,000  Level Miami Center
Sun 06:58:15 PM 28.8397 -80.1097 22° Northeast 432 497 33,000  Level Miami Center
Sun 06:59:15 PM 28.9556 -80.0608 20° North 437 503 33,000  Level Miami Center
Sun 07:00:15 PM 29.0736 -80.0075 22° Northeast 437 503 33,000  Level Miami Center
Sun 07:01:15 PM 29.1853 -79.9511 24° Northeast 437 503 33,000  Level Miami Center
Sun 07:02:15 PM 29.3072 -79.9069 18° North 442 509 33,000  Level Miami Center
Sun 07:04:28 PM 29.5669 -79.7861 22° Northeast 450 518 33,000  Level Jacksonville Center
Sun 07:05:28 PM 29.6825 -79.7347 21° North 450 518 33,000  Level Jacksonville Center
Sun 07:06:28 PM 29.8025 -79.6853 20° North 450 518 33,000  Level Jacksonville Center
Sun 07:07:28 PM 29.9158 -79.6264 24° Northeast 445 512 33,000  Level Jacksonville Center
Sun 07:08:28 PM 30.0147 -79.5847 20° North 445 512 33,000  Level Jacksonville Center
Sun 07:09:28 PM 30.1469 -79.5225 22° Northeast 444 511 33,000 -250 Level Jacksonville Center
Sun 07:10:28 PM 30.2478 -79.4758 22° Northeast 438 504 32,500 -800 Descending Jacksonville Center
Sun 07:11:28 PM 30.3614 -79.4236 22° Northeast 438 504 31,400 -1,150 Descending Jacksonville Center
Sun 07:12:28 PM 30.4850 -79.3686 21° North 444 511 30,200 -1,200 Descending Jacksonville Center
Sun 07:13:28 PM 30.6189 -79.3033 23° Northeast 474 545 29,000 -600 Descending Jacksonville Center
Sun 07:14:28 PM 30.7361 -79.2456 23° Northeast 465 535 29,000  Level Jacksonville Center
Sun 07:15:28 PM 30.8475 -79.1953 21° North 465 535 29,000  Level Jacksonville Center
Sun 07:16:28 PM 30.9692 -79.1422 20° North 465 535 29,000  Level Jacksonville Center
Sun 07:17:28 PM 31.0844 -79.0867 22° Northeast 460 529 29,000  Level Jacksonville Center
Sun 07:18:28 PM 31.2058 -79.0283 22° Northeast 460 529 29,000  Level Jacksonville Center
Sun 07:19:28 PM 31.3253 -78.9722 22° Northeast 465 535 29,000  Level Jacksonville Center
Sun 07:20:28 PM 31.4464 -78.9114 23° Northeast 465 535 29,000  Level Jacksonville Center
Sun 07:21:28 PM 31.5697 -78.8522 22° Northeast 471 542 29,000  Level Jacksonville Center
Sun 07:22:28 PM 31.6892 -78.7958 22° Northeast 469 540 29,000  Level Jacksonville Center
Sun 07:23:28 PM 31.8083 -78.7369 23° Northeast 464 534 29,000  Level Jacksonville Center
Sun 07:24:28 PM 31.9272 -78.6775 23° Northeast 464 534 29,000  Level Jacksonville Center
Sun 07:25:28 PM 32.0467 -78.6231 21° North 470 541 29,000  Level Jacksonville Center
Sun 07:26:28 PM 32.1697 -78.5633 22° Northeast 470 541 29,000  Level Jacksonville Center
Sun 07:27:28 PM 32.2928 -78.5011 23° Northeast 470 541 29,000  Level Jacksonville Center
Sun 07:28:28 PM 32.4139 -78.4361 24° Northeast 470 541 29,000  Level Jacksonville Center
Sun 07:29:28 PM 32.5347 -78.3786 22° Northeast 470 541 29,000  Level Jacksonville Center
Sun 07:30:28 PM 32.6578 -78.3181 23° Northeast 470 541 29,000  Level Jacksonville Center
Sun 07:31:28 PM 32.7789 -78.2553 24° Northeast 470 541 29,000  Level Jacksonville Center
Sun 07:32:28 PM 32.8997 -78.1969 22° Northeast 470 541 29,000  Level Jacksonville Center
Sun 07:33:28 PM 33.0228 -78.1361 23° Northeast 470 541 29,000  Level Jacksonville Center
Sun 07:34:28 PM 33.1456 -78.0775 22° Northeast 470 541 29,000  Level Jacksonville Center
Sun 07:36:49 PM 33.4419 -77.9283 23° Northeast 459 528 29,000  Level Washington Center
Sun 07:37:48 PM 33.5661 -77.8669 22° Northeast 465 535 29,000  Level Washington Center
Sun 07:38:48 PM 33.6883 -77.8056 23° Northeast 465 535 29,000  Level Washington Center
Sun 07:39:49 PM 33.8125 -77.7414 23° Northeast 470 541 29,000  Level Washington Center
Sun 07:40:50 PM 33.9367 -77.6769 23° Northeast 476 548 29,000  Level Washington Center
Sun 07:41:48 PM 34.0503 -77.6222 22° Northeast 486 559 29,000  Level Washington Center
Sun 07:42:49 PM 34.1744 -77.5600 23° Northeast 486 559 29,000  Level Washington Center
Sun 07:43:49 PM 34.2986 -77.4950 23° Northeast 480 552 29,000  Level Washington Center
Sun 07:44:51 PM 34.4206 -77.4350 22° Northeast 480 552 29,000  Level Washington Center
Sun 07:45:48 PM 34.5444 -77.3722 23° Northeast 480 552 29,000  Level Washington Center
Sun 07:46:49 PM 34.6686 -77.3067 23° Northeast 480 552 29,000  Level Washington Center
Sun 07:47:49 PM 34.7906 -77.2436 23° Northeast 480 552 29,000  Level Washington Center
Sun 07:48:49 PM 34.9125 -77.1750 25° Northeast 480 552 29,000  Level Washington Center
Sun 07:49:51 PM 35.0364 -77.1142 22° Northeast 480 552 29,000  Level Washington Center
Sun 07:50:48 PM 35.1542 -77.0478 25° Northeast 475 547 29,000  Level Washington Center
Sun 07:51:49 PM 35.2778 -76.9864 22° Northeast 475 547 29,000  Level Washington Center
Sun 07:52:49 PM 35.4017 -76.9222 23° Northeast 475 547 29,000  Level Washington Center
Sun 07:53:50 PM 35.5275 -76.8553 23° Northeast 482 555 29,000  Level Washington Center
Sun 07:54:50 PM 35.6450 -76.7933 23° Northeast 472 543 29,000  Level Washington Center
Sun 07:55:48 PM 35.7689 -76.7261 24° Northeast 472 543 29,000  Level Washington Center
Sun 07:56:49 PM 35.8925 -76.6586 24° Northeast 472 543 29,000  Level Washington Center
Sun 07:57:49 PM 36.0161 -76.5936 23° Northeast 478 550 29,000  Level Washington Center
Sun 07:58:50 PM 36.1419 -76.5256 24° Northeast 478 550 29,000  Level Washington Center
Sun 07:59:48 PM 36.2656 -76.4603 23° Northeast 478 550 29,000  Level Washington Center
Sun 08:00:49 PM 36.3911 -76.3919 24° Northeast 478 550 29,000  Level Washington Center
Sun 08:01:50 PM 36.5147 -76.3258 23° Northeast 478 550 29,000  Level Washington Center
Sun 08:02:50 PM 36.6383 -76.2597 23° Northeast 478 550 29,000  Level Washington Center
Sun 08:03:50 PM 36.7722 -76.1806 25° Northeast 478 550 29,000  Level Washington Center
Sun 08:04:48 PM 36.8933 -76.1164 23° Northeast 478 550 29,000  Level Washington Center
Sun 08:05:51 PM 37.0208 -76.0497 23° Northeast 484 557 29,000  Level Washington Center
Sun 08:06:48 PM 37.1464 -75.9800 24° Northeast 484 557 29,000  Level Washington Center
Sun 08:07:48 PM 37.2675 -75.9128 24° Northeast 478 550 29,000  Level Washington Center
Sun 08:08:49 PM 37.3908 -75.8428 24° Northeast 478 550 29,000  Level Washington Center
Sun 08:09:51 PM 37.5139 -75.7750 24° Northeast 478 550 29,000  Level Washington Center
Sun 08:10:48 PM 37.6392 -75.7044 24° Northeast 478 550 29,000  Level Washington Center
Sun 08:11:48 PM 37.7622 -75.6392 23° Northeast 478 550 29,000  Level Washington Center
Sun 08:12:49 PM 37.8853 -75.5656 25° Northeast 478 550 29,000  Level Washington Center
Sun 08:13:50 PM 38.0106 -75.4994 23° Northeast 478 550 29,000  Level Washington Center
Sun 08:14:50 PM 38.1333 -75.4203 27° Northeast 478 550 29,000  Level Washington Center
Sun 08:15:50 PM 38.2542 -75.3431 27° Northeast 483 556 29,000  Level Washington Center
Sun 08:16:48 PM 38.3667 -75.2739 26° Northeast 489 563 29,000  Level Washington Center
Sun 08:17:49 PM 38.4872 -75.1939 27° Northeast 484 557 29,000  Level Washington Center
Sun 08:18:50 PM 38.6078 -75.1133 28° Northeast 489 563 29,000  Level Washington Center
Sun 08:19:48 PM 38.7286 -75.0356 27° Northeast 484 557 29,000  Level Washington Center
Sun 08:20:48 PM 38.8489 -74.9519 28° Northeast 484 557 29,000  Level Washington Center
Sun 08:21:49 PM 38.9608 -74.8494 35° Northeast 489 563 29,000  Level Washington Center
Sun 08:22:50 PM 39.0728 -74.7494 35° Northeast 494 568 29,000 -793 Level Washington Center
Sun 08:23:50 PM 39.1847 -74.6436 36° Northeast 494 568 27,400 -1,920 Descending Washington Center
Sun 08:24:30 PM 39.2686 -74.5708 34° Northeast 491 565 25,800 -2,449 Descending New York Center
Sun 08:25:28 PM 39.3611 -74.4817 37° Northeast 490 564 23,400 -2,622 Descending New York Center
Sun 08:26:29 PM 39.4706 -74.3772 36° Northeast 461 531 20,600 -2,410 Descending New York Center
Sun 08:27:30 PM 39.5714 -74.2853 35° Northeast 447 514 18,500 -1,563 Descending New York Center
Sun 08:28:28 PM 39.6511 -74.1978 40° Northeast 424 488 17,500 -1,664 Descending New York Center
Sun 08:29:29 PM 39.7458 -74.0944 40° Northeast 410 472 15,200 -1,785 Descending New York Center
Sun 08:30:29 PM 39.8275 -74.0064 40° Northeast 394 453 13,900 -1,311 Descending New York Center
Sun 08:31:28 PM 39.9106 -73.9397 32° Northeast 371 427 12,600 -1,200 Descending New York Center
Sun 08:32:29 PM 39.9806 -73.8917 28° Northeast 331 381 11,500 -1,091 Descending New York Center
Sun 08:33:29 PM 40.0569 -73.8408 27° Northeast 310 357 10,400 -1,500 Descending New York Center
Sun 08:34:33 PM 40.1500 -73.7833 25° Northeast 291 335 8,400 -1,729 Descending New York TRACON
Sun 08:35:27 PM 40.2000 -73.8000 346° North 291 335 7,000 -1,500 Descending New York TRACON
Sun 08:36:33 PM 40.2833 -73.8500 335° Northwest 279 321 5,400 -1,545 Descending New York TRACON
Sun 08:37:39 PM 40.3500 -73.9167 323° Northwest 269 310 3,600 -1,231 Descending New York TRACON
Sun 08:38:30 PM 40.4042 -73.9489 336° Northwest 269 310 3,000 -545 Descending New York Center
Sun 08:38:45 PM 40.4333 -73.9500 358° North 278 320 3,000  Level New York TRACON
Sun 08:39:39 PM 40.4833 -73.9667 346° North 236 272 3,000 -300 Level New York TRACON
Sun 08:40:45 PM 40.5500 -73.9500 11° North 206 237 2,400 -750 Descending New York TRACON
Sun 08:41:39 PM 40.5833 -73.9167 37° Northeast 173 199 1,500 -632 Descending New York TRACON
Sun 08:42:39 PM 40.6333 -73.8833 27° Northeast 158 182 1,200 -350 Descending New York TRACON
Sun 08:43:39 PM 40.6667 -73.8500 37° Northeast 151 174 800 -400 Descending New York TRACON
Sun 08:44:39 PM 40.6667 -73.8000 90° East 131 151 400 -400 Descending New York TRACON

Login

Don't have an account? Register now (free) for customized features, flight alerts, and more!